createdAt,value
2023-04-16T00:00:54.487Z,0.09
2023-04-16T00:01:57.298Z,0.07
2023-04-16T00:03:01.171Z,0.06
2023-04-16T00:04:04.472Z,0.03
2023-04-16T00:05:08.927Z,0.00
2023-04-16T00:06:12.136Z,-0.05
2023-04-16T00:07:15.800Z,-0.05
2023-04-16T00:08:18.085Z,-0.08
2023-04-16T00:09:21.740Z,-0.25
2023-04-16T00:10:24.143Z,-0.14
2023-04-16T00:11:29.300Z,-0.17
2023-04-16T00:12:31.980Z,-0.19
2023-04-16T00:13:35.922Z,-0.22
2023-04-16T00:14:38.783Z,-0.28
2023-04-16T00:15:42.642Z,-0.28
2023-04-16T00:16:45.459Z,-0.32
2023-04-16T00:17:49.063Z,-0.33
2023-04-16T00:18:51.802Z,-0.35
2023-04-16T00:19:55.515Z,-0.37
2023-04-16T00:20:58.373Z,-0.32
2023-04-16T00:22:02.021Z,-0.28
2023-04-16T00:23:04.750Z,-0.30
2023-04-16T00:24:08.395Z,-0.29
2023-04-16T00:25:11.087Z,-0.26
2023-04-16T00:26:14.779Z,-0.28
2023-04-16T00:27:19.742Z,-0.26
2023-04-16T00:28:23.494Z,-0.27
2023-04-16T00:29:27.718Z,-0.25
2023-04-16T00:30:31.340Z,-0.23
2023-04-16T00:31:35.810Z,-0.22
2023-04-16T00:32:38.421Z,-0.23
2023-04-16T00:33:42.330Z,-0.20
2023-04-16T00:34:44.497Z,-0.19
2023-04-16T00:35:48.729Z,-0.18
2023-04-16T00:36:51.719Z,-0.19
2023-04-16T00:37:55.413Z,-0.14
2023-04-16T00:38:57.848Z,-0.13
2023-04-16T00:40:01.598Z,-0.10
2023-04-16T00:41:05.997Z,-0.07
2023-04-16T00:42:10.065Z,-0.04
2023-04-16T00:43:22.224Z,-0.02
2023-04-16T00:44:25.943Z,-0.00
2023-04-16T00:45:28.225Z,0.01
2023-04-16T00:46:32.522Z,0.01
2023-04-16T00:47:35.780Z,-0.19
2023-04-16T00:48:42.199Z,-0.01
2023-04-16T00:49:45.127Z,-0.01
2023-04-16T00:50:49.101Z,-0.04
2023-04-16T00:51:51.900Z,-0.16
2023-04-16T00:52:55.782Z,-0.06
2023-04-16T00:53:58.540Z,-0.09
2023-04-16T00:55:03.233Z,-0.12
2023-04-16T00:56:07.713Z,-0.17
2023-04-16T00:57:11.999Z,-0.21
2023-04-16T00:58:16.680Z,-0.26
2023-04-16T00:59:20.856Z,-0.33
2023-04-16T01:00:23.660Z,-0.28
2023-04-16T01:01:27.376Z,-0.33
2023-04-16T01:02:29.899Z,-0.32
2023-04-16T01:03:40.427Z,-0.31
2023-04-16T01:04:43.502Z,-0.31
2023-04-16T01:05:49.484Z,-0.34
2023-04-16T01:06:52.141Z,-0.36
2023-04-16T01:07:59.902Z,-0.39
2023-04-16T01:09:02.625Z,-0.43
2023-04-16T01:10:06.720Z,-0.47
2023-04-16T01:11:10.128Z,-0.46
2023-04-16T01:12:13.805Z,-0.50
2023-04-16T01:13:18.019Z,-0.55
2023-04-16T01:14:21.629Z,-0.58
2023-04-16T01:15:24.413Z,-0.60
2023-04-16T01:16:28.158Z,-0.65
2023-04-16T01:17:30.892Z,-0.64
2023-04-16T01:18:34.448Z,-0.65
2023-04-16T01:19:37.415Z,-0.68
2023-04-16T01:20:42.537Z,-0.70
2023-04-16T01:21:45.202Z,-0.70
2023-04-16T01:22:48.760Z,-0.73
2023-04-16T01:23:51.509Z,-0.74
2023-04-16T01:24:55.223Z,-0.75
2023-04-16T01:25:58.033Z,-0.76
2023-04-16T01:27:01.844Z,-0.82
2023-04-16T01:28:04.881Z,-0.78
2023-04-16T01:29:08.757Z,-0.80
2023-04-16T01:30:30.709Z,-0.79
2023-04-16T01:31:34.475Z,-0.80
2023-04-16T01:32:36.791Z,-0.78
2023-04-16T01:33:40.548Z,-0.83
2023-04-16T01:34:42.865Z,-0.76
2023-04-16T01:35:48.320Z,-0.77
2023-04-16T01:36:51.413Z,-0.74
2023-04-16T01:37:55.251Z,-0.71
2023-04-16T01:38:58.014Z,-0.69
2023-04-16T01:40:01.622Z,-0.68
2023-04-16T01:41:06.822Z,-0.67
2023-04-16T01:42:10.512Z,-0.66
2023-04-16T01:43:12.895Z,-0.65
2023-04-16T01:44:16.551Z,-0.67
2023-04-16T01:45:19.285Z,-0.71
2023-04-16T01:46:28.802Z,-0.71
2023-04-16T01:47:31.573Z,-0.75
2023-04-16T01:48:35.334Z,-0.74
2023-04-16T01:49:37.563Z,-0.75
2023-04-16T01:50:41.319Z,-0.74
2023-04-16T01:51:45.774Z,-0.73
2023-04-16T01:52:49.438Z,-0.73
2023-04-16T01:53:52.260Z,-0.91
2023-04-16T01:54:56.105Z,-0.74
2023-04-16T01:55:58.835Z,-0.73
2023-04-16T01:57:03.420Z,-0.74
2023-04-16T01:58:08.088Z,-0.75
2023-04-16T01:59:12.511Z,-0.76
2023-04-16T02:00:15.477Z,-0.76
2023-04-16T02:01:19.375Z,-0.76
2023-04-16T02:02:28.441Z,-0.77
2023-04-16T02:03:32.941Z,-0.79
2023-04-16T02:04:35.723Z,-0.81
2023-04-16T02:05:39.355Z,-0.81
2023-04-16T02:06:42.004Z,-0.81
2023-04-16T02:07:47.272Z,-0.82
2023-04-16T02:08:49.835Z,-0.82
2023-04-16T02:09:53.839Z,-0.82
2023-04-16T02:10:57.193Z,-0.82
2023-04-16T02:12:02.944Z,-0.81
2023-04-16T02:13:06.040Z,-0.81
2023-04-16T02:14:10.094Z,-0.80
2023-04-16T02:15:13.123Z,-0.80
2023-04-16T02:16:16.823Z,-0.83
2023-04-16T02:17:40.438Z,-0.82
2023-04-16T02:18:44.920Z,-0.83
2023-04-16T02:19:48.564Z,-0.82
2023-04-16T02:20:51.244Z,-0.82
2023-04-16T02:21:55.164Z,-0.81
2023-04-16T02:22:59.190Z,-0.81
2023-04-16T02:24:02.833Z,-0.81
2023-04-16T02:25:05.788Z,-0.78
2023-04-16T02:26:09.669Z,-0.78
2023-04-16T02:27:12.459Z,-0.74
2023-04-16T02:28:17.928Z,-0.72
2023-04-16T02:29:20.909Z,-0.69
2023-04-16T02:30:24.602Z,-0.70
2023-04-16T02:31:28.769Z,-0.67
2023-04-16T02:32:32.681Z,-0.66
2023-04-16T02:33:36.212Z,-0.63
2023-04-16T02:34:40.460Z,-0.61
2023-04-16T02:35:43.173Z,-0.61
2023-04-16T02:36:47.656Z,-0.60
2023-04-16T02:37:50.227Z,-0.61
2023-04-16T02:38:55.320Z,-0.59
2023-04-16T02:39:58.265Z,-0.62
2023-04-16T02:41:01.915Z,-0.59
2023-04-16T02:42:04.617Z,-0.58
2023-04-16T02:43:08.273Z,-0.56
2023-04-16T02:44:10.631Z,-0.56
2023-04-16T02:45:14.804Z,-0.55
2023-04-16T02:46:17.548Z,-0.58
2023-04-16T02:47:21.207Z,-0.54
2023-04-16T02:48:23.959Z,-0.60
2023-04-16T02:49:27.564Z,-0.49
2023-04-16T02:50:31.387Z,-0.47
2023-04-16T02:51:33.885Z,-0.46
2023-04-16T02:52:37.700Z,-0.47
2023-04-16T02:53:40.401Z,-0.42
2023-04-16T02:54:45.683Z,-0.38
2023-04-16T02:55:52.985Z,-0.36
2023-04-16T02:56:57.140Z,-0.31
2023-04-16T02:57:59.639Z,-0.28
2023-04-16T02:59:03.466Z,-0.27
2023-04-16T03:00:07.193Z,-0.25
2023-04-16T03:01:11.433Z,-0.25
2023-04-16T03:02:14.346Z,-0.22
2023-04-16T03:03:18.053Z,-0.23
2023-04-16T03:04:20.789Z,-0.25
2023-04-16T03:05:24.597Z,-0.19
2023-04-16T03:06:27.353Z,-0.16
2023-04-16T03:07:31.122Z,-0.17
2023-04-16T03:08:33.821Z,-0.18
2023-04-16T03:09:37.714Z,-0.16
2023-04-16T03:10:41.917Z,-0.20
2023-04-16T03:11:45.592Z,-0.16
2023-04-16T03:12:47.954Z,-0.22
2023-04-16T03:13:51.662Z,-0.22
2023-04-16T03:14:53.942Z,-0.20
2023-04-16T03:15:57.709Z,-0.20
2023-04-16T03:17:01.720Z,-0.16
2023-04-16T03:18:05.336Z,-0.11
2023-04-16T03:19:08.236Z,-0.21
2023-04-16T03:20:12.610Z,-0.11
2023-04-16T03:21:15.180Z,-0.08
2023-04-16T03:22:18.926Z,-0.06
2023-04-16T03:23:21.361Z,0.00
2023-04-16T03:24:25.104Z,-0.01
2023-04-16T03:25:27.565Z,-0.00
2023-04-16T03:26:32.739Z,0.04
2023-04-16T03:27:35.762Z,0.05
2023-04-16T03:28:39.355Z,0.12
2023-04-16T03:29:41.967Z,0.12
2023-04-16T03:30:51.530Z,0.09
2023-04-16T03:31:54.309Z,0.16
2023-04-16T03:32:58.047Z,0.24
2023-04-16T03:34:00.377Z,0.25
2023-04-16T03:35:04.946Z,0.26
2023-04-16T03:36:08.335Z,0.29
2023-04-16T03:37:12.620Z,0.31
2023-04-16T03:38:15.416Z,0.29
2023-04-16T03:39:19.102Z,0.30
2023-04-16T03:40:21.940Z,0.36
2023-04-16T03:41:25.615Z,0.34
2023-04-16T03:42:29.734Z,0.37
2023-04-16T03:43:33.435Z,0.43
2023-04-16T03:44:37.476Z,0.48
2023-04-16T03:45:45.151Z,0.52
2023-04-16T03:46:49.024Z,0.53
2023-04-16T03:47:53.111Z,0.51
2023-04-16T03:48:57.128Z,0.49
2023-04-16T03:49:59.778Z,0.54
2023-04-16T03:51:03.541Z,0.58
2023-04-16T03:52:06.280Z,0.66
2023-04-16T03:53:09.975Z,0.72
2023-04-16T03:54:12.701Z,0.78
2023-04-16T03:55:16.657Z,0.83
2023-04-16T03:56:19.455Z,0.86
2023-04-16T03:57:23.232Z,0.92
2023-04-16T03:58:27.274Z,1.00
2023-04-16T03:59:31.300Z,1.07
2023-04-16T04:00:33.816Z,1.12
2023-04-16T04:01:37.887Z,1.21
2023-04-16T04:02:40.665Z,1.26
2023-04-16T04:03:44.747Z,1.30
2023-04-16T04:04:47.761Z,1.36
2023-04-16T04:05:51.640Z,1.46
2023-04-16T04:06:54.180Z,1.48
2023-04-16T04:07:58.032Z,1.51
2023-04-16T04:09:00.229Z,1.56
2023-04-16T04:10:04.161Z,1.61
2023-04-16T04:11:06.868Z,1.69
2023-04-16T04:12:11.288Z,1.70
2023-04-16T04:13:13.959Z,1.75
2023-04-16T04:14:19.105Z,1.79
2023-04-16T04:15:21.849Z,1.79
2023-04-16T04:16:25.806Z,1.83
2023-04-16T04:17:28.489Z,1.91
2023-04-16T04:18:32.303Z,1.96
2023-04-16T04:19:35.134Z,1.99
2023-04-16T04:20:41.222Z,2.04
2023-04-16T04:21:43.904Z,2.06
2023-04-16T04:22:47.629Z,2.08
2023-04-16T04:23:50.381Z,2.13
2023-04-16T04:24:54.027Z,2.14
2023-04-16T04:25:56.821Z,2.17
2023-04-16T04:27:00.510Z,2.22
2023-04-16T04:28:02.767Z,2.28
2023-04-16T04:29:06.416Z,2.29
2023-04-16T04:30:11.130Z,2.21
2023-04-16T04:31:15.085Z,2.25
2023-04-16T04:32:17.777Z,2.33
2023-04-16T04:33:21.541Z,2.31
2023-04-16T04:34:24.313Z,2.40
2023-04-16T04:35:27.890Z,2.43
2023-04-16T04:36:31.300Z,2.47
2023-04-16T04:37:35.097Z,2.51
2023-04-16T04:38:37.804Z,2.50
2023-04-16T04:39:41.446Z,2.59
2023-04-16T04:40:43.722Z,2.59
2023-04-16T04:41:47.445Z,2.65
2023-04-16T04:42:50.775Z,2.70
2023-04-16T04:43:54.683Z,2.74
2023-04-16T04:44:57.173Z,2.77
2023-04-16T04:46:02.443Z,2.80
2023-04-16T04:47:05.155Z,2.86
2023-04-16T04:48:08.976Z,2.90
2023-04-16T04:49:11.785Z,2.87
2023-04-16T04:50:15.557Z,2.95
2023-04-16T04:51:17.919Z,2.95
2023-04-16T04:52:22.040Z,2.95
2023-04-16T04:53:24.691Z,2.95
2023-04-16T04:54:28.397Z,2.99
2023-04-16T04:55:30.691Z,2.96
2023-04-16T04:56:34.571Z,2.93
2023-04-16T04:57:37.296Z,3.00
2023-04-16T04:58:41.698Z,3.01
2023-04-16T04:59:44.376Z,2.91
2023-04-16T05:00:48.347Z,2.89
2023-04-16T05:01:52.662Z,2.77
2023-04-16T05:02:56.514Z,2.92
2023-04-16T05:03:59.334Z,2.93
2023-04-16T05:05:03.039Z,2.95
2023-04-16T05:06:07.720Z,2.93
2023-04-16T05:07:11.398Z,3.01
2023-04-16T05:08:13.846Z,2.99
2023-04-16T05:09:17.613Z,3.06
2023-04-16T05:10:20.456Z,3.14
2023-04-16T05:11:24.203Z,3.22
2023-04-16T05:12:26.976Z,3.16
2023-04-16T05:13:30.805Z,3.18
2023-04-16T05:14:33.637Z,3.21
2023-04-16T05:15:39.484Z,3.29
2023-04-16T05:16:42.178Z,3.29
2023-04-16T05:17:47.482Z,3.25
2023-04-16T05:18:50.728Z,3.31
2023-04-16T05:19:54.394Z,3.23
2023-04-16T05:20:56.684Z,3.28
2023-04-16T05:22:00.402Z,3.25
2023-04-16T05:23:02.654Z,3.23
2023-04-16T05:24:06.685Z,3.29
2023-04-16T05:25:10.047Z,3.26
2023-04-16T05:26:13.575Z,3.22
2023-04-16T05:27:17.377Z,3.27
2023-04-16T05:28:19.931Z,3.26
2023-04-16T05:29:23.845Z,3.35
2023-04-16T05:30:26.076Z,3.40
2023-04-16T05:31:29.876Z,3.41
2023-04-16T05:32:32.564Z,3.42
2023-04-16T05:33:37.753Z,3.45
2023-04-16T05:34:40.793Z,3.46
2023-04-16T05:35:44.386Z,3.43
2023-04-16T05:36:47.257Z,3.45
2023-04-16T05:37:50.921Z,3.50
2023-04-16T05:38:53.227Z,3.55
2023-04-16T05:39:56.968Z,3.60
2023-04-16T05:40:59.940Z,3.61
2023-04-16T05:42:03.494Z,3.68
2023-04-16T05:43:06.390Z,3.65
2023-04-16T05:44:10.025Z,3.70
2023-04-16T05:45:12.683Z,3.78
2023-04-16T05:46:16.330Z,3.79
2023-04-16T05:47:19.302Z,3.86
2023-04-16T05:48:22.916Z,3.90
2023-04-16T05:49:26.960Z,3.90
2023-04-16T05:50:30.751Z,3.91
2023-04-16T05:51:33.454Z,4.00
2023-04-16T05:52:37.281Z,4.02
2023-04-16T05:53:39.902Z,4.11
2023-04-16T05:54:43.513Z,4.14
2023-04-16T05:55:47.195Z,4.15
2023-04-16T05:56:50.827Z,4.18
2023-04-16T05:57:53.164Z,4.21
2023-04-16T05:58:56.798Z,4.23
2023-04-16T05:59:59.410Z,4.26
2023-04-16T06:01:03.867Z,4.30
2023-04-16T06:02:09.060Z,4.32
2023-04-16T06:03:11.889Z,4.48
2023-04-16T06:04:15.967Z,4.49
2023-04-16T06:05:20.316Z,4.61
2023-04-16T06:06:24.106Z,4.65
2023-04-16T06:07:26.632Z,4.71
2023-04-16T06:08:30.474Z,4.67
2023-04-16T06:09:32.734Z,4.75
2023-04-16T06:10:36.440Z,4.75
2023-04-16T06:11:39.825Z,4.78
2023-04-16T06:12:43.546Z,4.76
2023-04-16T06:13:46.223Z,4.80
2023-04-16T06:14:49.923Z,4.80
2023-04-16T06:15:52.303Z,4.83
2023-04-16T06:16:56.731Z,4.81
2023-04-16T06:18:00.892Z,4.79
2023-04-16T06:19:04.732Z,4.80
2023-04-16T06:20:07.504Z,4.79
2023-04-16T06:21:12.657Z,4.79
2023-04-16T06:22:15.638Z,4.80
2023-04-16T06:23:19.388Z,4.84
2023-04-16T06:24:22.124Z,4.86
2023-04-16T06:25:25.777Z,4.94
2023-04-16T06:26:28.053Z,4.98
2023-04-16T06:27:32.709Z,4.90
2023-04-16T06:28:35.349Z,5.00
2023-04-16T06:29:41.548Z,4.97
2023-04-16T06:30:44.887Z,4.93
2023-04-16T06:31:49.708Z,4.94
2023-04-16T06:32:54.100Z,4.95
2023-04-16T06:33:58.190Z,4.94
2023-04-16T06:35:00.981Z,5.01
2023-04-16T06:36:04.932Z,5.11
2023-04-16T06:37:10.639Z,5.12
2023-04-16T06:38:14.721Z,5.16
2023-04-16T06:39:17.450Z,5.23
2023-04-16T06:40:21.137Z,5.30
2023-04-16T06:41:25.973Z,5.35
2023-04-16T06:42:29.762Z,5.30
2023-04-16T06:43:33.888Z,5.27
2023-04-16T06:44:37.815Z,5.23
2023-04-16T06:45:40.364Z,5.35
2023-04-16T06:46:44.267Z,5.44
2023-04-16T06:47:48.285Z,5.50
2023-04-16T06:48:52.343Z,5.54
2023-04-16T06:49:55.015Z,5.63
2023-04-16T06:50:58.833Z,5.63
2023-04-16T06:52:03.329Z,5.66
2023-04-16T06:53:10.050Z,5.64
2023-04-16T06:54:13.062Z,5.64
2023-04-16T06:55:16.867Z,5.70
2023-04-16T06:56:20.582Z,5.70
2023-04-16T06:57:24.251Z,5.77
2023-04-16T06:58:27.607Z,5.81
2023-04-16T06:59:31.443Z,5.90
2023-04-16T07:00:34.078Z,5.97
2023-04-16T07:01:37.876Z,6.05
2023-04-16T07:02:40.953Z,6.11
2023-04-16T07:03:44.929Z,6.15
2023-04-16T07:04:48.050Z,6.21
2023-04-16T07:05:51.671Z,6.26
2023-04-16T07:06:54.024Z,6.30
2023-04-16T07:07:57.825Z,6.37
2023-04-16T07:09:02.834Z,6.30
2023-04-16T07:10:07.668Z,6.42
2023-04-16T07:11:11.304Z,6.38
2023-04-16T07:12:13.720Z,6.35
2023-04-16T07:13:18.799Z,6.39
2023-04-16T07:14:21.608Z,6.37
2023-04-16T07:15:25.501Z,6.39
2023-04-16T07:16:28.315Z,6.39
2023-04-16T07:17:31.937Z,6.41
2023-04-16T07:18:34.882Z,6.41
2023-04-16T07:19:38.449Z,6.43
2023-04-16T07:20:42.278Z,6.40
2023-04-16T07:21:44.950Z,6.39
2023-04-16T07:22:48.798Z,6.43
2023-04-16T07:23:51.047Z,6.49
2023-04-16T07:24:56.705Z,6.57
2023-04-16T07:26:00.611Z,6.58
2023-04-16T07:27:03.258Z,6.66
2023-04-16T07:28:07.159Z,6.70
2023-04-16T07:29:09.872Z,6.75
2023-04-16T07:30:14.051Z,6.75
2023-04-16T07:31:16.700Z,6.81
2023-04-16T07:32:21.752Z,6.84
2023-04-16T07:33:26.331Z,6.90
2023-04-16T07:34:29.007Z,6.93
2023-04-16T07:35:33.103Z,7.00
2023-04-16T07:36:35.913Z,6.94
2023-04-16T07:37:39.509Z,6.96
2023-04-16T07:38:42.072Z,7.00
2023-04-16T07:39:45.845Z,7.00
2023-04-16T07:40:49.953Z,6.89
2023-04-16T07:41:53.816Z,7.12
2023-04-16T07:42:56.625Z,7.18
2023-04-16T07:44:00.331Z,7.23
2023-04-16T07:45:04.182Z,7.23
2023-04-16T07:46:08.036Z,7.21
2023-04-16T07:47:10.992Z,7.28
2023-04-16T07:48:14.633Z,7.29
2023-04-16T07:49:16.895Z,7.27
2023-04-16T07:50:20.882Z,7.29
2023-04-16T07:51:23.945Z,7.23
2023-04-16T07:52:28.166Z,7.28
2023-04-16T07:53:30.952Z,7.31
2023-04-16T07:54:34.692Z,7.39
2023-04-16T07:55:37.285Z,7.47
2023-04-16T07:56:42.326Z,7.46
2023-04-16T07:57:45.291Z,7.48
2023-04-16T07:58:48.900Z,7.55
2023-04-16T07:59:51.599Z,7.56
2023-04-16T08:00:55.423Z,7.58
2023-04-16T08:01:58.311Z,7.56
2023-04-16T08:03:02.651Z,7.59
2023-04-16T08:04:05.814Z,7.60
2023-04-16T08:05:10.057Z,7.57
2023-04-16T08:06:13.892Z,7.57
2023-04-16T08:07:17.454Z,7.50
2023-04-16T08:08:20.286Z,7.54
2023-04-16T08:09:25.179Z,7.56
2023-04-16T08:10:29.057Z,7.54
2023-04-16T08:11:31.557Z,7.55
2023-04-16T08:12:36.947Z,7.55
2023-04-16T08:13:40.020Z,7.52
2023-04-16T08:14:43.741Z,7.59
2023-04-16T08:15:47.360Z,7.59
2023-04-16T08:16:50.219Z,7.67
2023-04-16T08:17:54.015Z,7.67
2023-04-16T08:18:59.085Z,7.70
2023-04-16T08:20:02.761Z,7.62
2023-04-16T08:21:08.679Z,7.55
2023-04-16T08:22:10.985Z,7.56
2023-04-16T08:23:14.671Z,7.45
2023-04-16T08:24:17.167Z,7.58
2023-04-16T08:25:20.840Z,7.64
2023-04-16T08:26:23.471Z,7.68
2023-04-16T08:27:27.302Z,7.69
2023-04-16T08:28:32.195Z,7.55
2023-04-16T08:29:34.901Z,7.58
2023-04-16T08:30:38.542Z,7.64
2023-04-16T08:31:42.212Z,7.66
2023-04-16T08:32:47.960Z,7.65
2023-04-16T08:33:51.936Z,7.64
2023-04-16T08:34:56.139Z,7.67
2023-04-16T08:35:58.722Z,7.65
2023-04-16T08:37:02.466Z,7.66
2023-04-16T08:38:04.947Z,7.66
2023-04-16T08:39:08.352Z,7.73
2023-04-16T08:40:12.004Z,7.72
2023-04-16T08:41:16.406Z,7.66
2023-04-16T08:42:29.541Z,7.76
2023-04-16T08:43:35.944Z,7.79
2023-04-16T08:44:44.191Z,7.88
2023-04-16T08:45:49.540Z,7.97
2023-04-16T08:46:57.484Z,8.03
2023-04-16T08:48:02.334Z,8.02
2023-04-16T08:49:07.666Z,8.12
2023-04-16T08:50:13.309Z,8.20
2023-04-16T08:51:18.911Z,8.27
2023-04-16T08:52:25.507Z,8.19
2023-04-16T08:53:36.397Z,8.19
2023-04-16T08:54:44.993Z,8.08
2023-04-16T08:55:50.563Z,8.13
2023-04-16T08:56:53.775Z,8.09
2023-04-16T08:58:01.589Z,8.16
2023-04-16T08:59:06.078Z,8.15
2023-04-16T09:00:11.160Z,8.18
2023-04-16T09:01:15.089Z,8.18
2023-04-16T09:02:18.675Z,8.17
2023-04-16T09:03:25.478Z,8.15
2023-04-16T09:04:29.281Z,8.18
2023-04-16T09:05:34.860Z,8.15
2023-04-16T09:06:38.585Z,8.21
2023-04-16T09:07:43.638Z,8.28
2023-04-16T09:08:47.625Z,8.21
2023-04-16T09:09:53.739Z,8.19
2023-04-16T09:10:57.997Z,8.28
2023-04-16T09:12:01.237Z,8.22
2023-04-16T09:13:05.059Z,8.28
2023-04-16T09:14:10.945Z,8.31
2023-04-16T09:15:15.763Z,8.39
2023-04-16T09:16:19.101Z,8.36
2023-04-16T09:17:23.050Z,8.40
2023-04-16T09:18:28.538Z,8.36
2023-04-16T09:19:31.091Z,8.37
2023-04-16T09:20:34.885Z,8.40
2023-04-16T09:21:37.512Z,8.43
2023-04-16T09:22:41.552Z,8.41
2023-04-16T09:23:44.604Z,8.47
2023-04-16T09:24:48.371Z,8.44
2023-04-16T09:25:51.013Z,8.45
2023-04-16T09:26:56.656Z,8.52
2023-04-16T09:27:59.294Z,8.53
2023-04-16T09:29:03.318Z,8.49
2023-04-16T09:30:24.618Z,8.50
2023-04-16T09:31:27.606Z,8.53
2023-04-16T09:32:31.500Z,8.59
2023-04-16T09:33:34.987Z,8.63
2023-04-16T09:34:56.706Z,8.65
2023-04-16T09:35:59.427Z,8.59
2023-04-16T09:37:18.587Z,8.63
2023-04-16T09:38:21.554Z,8.65
2023-04-16T09:39:25.096Z,8.68
2023-04-16T09:40:28.150Z,8.74
2023-04-16T09:41:33.403Z,8.78
2023-04-16T09:42:37.365Z,8.77
2023-04-16T09:43:41.246Z,8.81
2023-04-16T09:44:44.034Z,8.84
2023-04-16T09:45:57.581Z,8.88
2023-04-16T09:47:07.953Z,8.88
2023-04-16T09:48:11.571Z,8.96
2023-04-16T09:49:16.213Z,8.97
2023-04-16T09:50:20.471Z,8.98
2023-04-16T09:51:25.089Z,9.01
2023-04-16T09:52:27.774Z,9.00
2023-04-16T09:53:33.192Z,8.85
2023-04-16T09:54:36.875Z,8.85
2023-04-16T09:55:40.620Z,8.95
2023-04-16T09:56:45.274Z,8.98
2023-04-16T09:57:48.879Z,8.96
2023-04-16T09:58:51.267Z,8.98
2023-04-16T09:59:57.559Z,9.01
2023-04-16T10:01:03.785Z,9.03
2023-04-16T10:02:15.353Z,9.09
2023-04-16T10:03:20.082Z,9.18
2023-04-16T10:04:22.957Z,9.21
2023-04-16T10:05:28.201Z,9.26
2023-04-16T10:06:31.380Z,9.23
2023-04-16T10:07:36.555Z,9.30
2023-04-16T10:08:45.251Z,9.33
2023-04-16T10:09:48.808Z,9.22
2023-04-16T10:10:52.892Z,9.17
2023-04-16T10:11:55.564Z,9.08
2023-04-16T10:12:59.679Z,9.05
2023-04-16T10:14:02.356Z,9.15
2023-04-16T10:15:06.986Z,9.26
2023-04-16T10:16:11.591Z,9.22
2023-04-16T10:17:15.687Z,9.23
2023-04-16T10:18:23.508Z,9.32
2023-04-16T10:19:28.426Z,9.31
2023-04-16T10:20:31.551Z,9.26
2023-04-16T10:21:35.498Z,9.21
2023-04-16T10:22:38.635Z,9.22
2023-04-16T10:23:43.128Z,9.26
2023-04-16T10:24:47.464Z,9.23
2023-04-16T10:25:51.966Z,9.31
2023-04-16T10:26:55.907Z,9.22
2023-04-16T10:28:00.326Z,9.18
2023-04-16T10:29:04.730Z,9.20
2023-04-16T10:30:10.411Z,9.15
2023-04-16T10:31:15.119Z,9.13
2023-04-16T10:32:21.048Z,9.15
2023-04-16T10:33:28.299Z,9.02
2023-04-16T10:34:33.837Z,9.02
2023-04-16T10:35:40.339Z,9.03
2023-04-16T10:36:44.524Z,8.97
2023-04-16T10:37:47.755Z,9.05
2023-04-16T10:38:52.748Z,9.14
2023-04-16T10:39:55.816Z,9.28
2023-04-16T10:41:03.390Z,9.48
2023-04-16T10:42:11.143Z,9.61
2023-04-16T10:43:18.321Z,9.79
2023-04-16T10:44:21.998Z,9.81
2023-04-16T10:45:31.239Z,9.91
2023-04-16T10:46:39.217Z,9.97
2023-04-16T10:47:43.473Z,10.04
2023-04-16T10:48:50.152Z,10.16
2023-04-16T10:49:53.377Z,10.07
2023-04-16T10:50:59.107Z,9.97
2023-04-16T10:52:08.213Z,10.13
2023-04-16T10:53:24.341Z,10.27
2023-04-16T10:54:29.219Z,10.29
2023-04-16T10:55:31.937Z,10.38
2023-04-16T10:56:37.123Z,10.42
2023-04-16T10:57:40.808Z,10.36
2023-04-16T10:58:43.331Z,10.41
2023-04-16T10:59:48.186Z,10.51
2023-04-16T11:00:51.371Z,10.47
2023-04-16T11:01:58.599Z,10.47
2023-04-16T11:03:02.378Z,10.56
2023-04-16T11:04:36.789Z,10.53
2023-04-16T11:05:47.263Z,10.72
2023-04-16T11:07:03.494Z,10.84
2023-04-16T11:08:14.405Z,10.95
2023-04-16T11:09:49.886Z,10.99
2023-04-16T11:10:54.008Z,10.85
2023-04-16T11:11:56.848Z,10.92
2023-04-16T11:13:01.143Z,11.10
2023-04-16T11:14:05.540Z,11.18
2023-04-16T11:15:11.628Z,11.27
2023-04-16T11:16:14.859Z,11.27
2023-04-16T11:17:20.618Z,11.34
2023-04-16T11:18:23.491Z,11.30
2023-04-16T11:19:27.387Z,11.47
2023-04-16T11:20:31.106Z,11.55
2023-04-16T11:21:35.614Z,11.39
2023-04-16T11:22:38.960Z,11.47
2023-04-16T11:23:50.415Z,11.44
2023-04-16T11:24:55.986Z,11.60
2023-04-16T11:26:00.417Z,11.66
2023-04-16T11:27:03.367Z,11.46
2023-04-16T11:28:07.171Z,11.39
2023-04-16T11:29:15.577Z,11.51
2023-04-16T11:30:20.284Z,11.52
2023-04-16T11:31:23.690Z,11.35
2023-04-16T11:32:29.132Z,11.34
2023-04-16T11:33:32.404Z,11.37
2023-04-16T11:34:36.439Z,11.39
2023-04-16T11:35:39.791Z,11.46
2023-04-16T11:36:46.421Z,11.59
2023-04-16T11:37:49.111Z,11.50
2023-04-16T11:38:53.023Z,11.54
2023-04-16T11:39:55.796Z,11.51
2023-04-16T11:40:59.607Z,11.63
2023-04-16T11:42:03.599Z,11.52
2023-04-16T11:43:17.494Z,11.52
2023-04-16T11:44:22.982Z,11.61
2023-04-16T11:45:26.077Z,11.68
2023-04-16T11:46:40.905Z,11.72
2023-04-16T11:47:47.682Z,11.54
2023-04-16T11:48:51.318Z,11.76
2023-04-16T11:49:55.237Z,11.80
2023-04-16T11:50:58.647Z,11.96
2023-04-16T11:52:02.495Z,12.07
2023-04-16T11:53:05.618Z,12.20
2023-04-16T11:54:11.859Z,12.17
2023-04-16T11:55:15.702Z,12.28
2023-04-16T11:56:27.812Z,12.11
2023-04-16T11:57:33.258Z,12.19
2023-04-16T11:58:36.037Z,12.35
2023-04-16T12:00:02.279Z,12.41
2023-04-16T12:01:07.223Z,11.94
2023-04-16T12:02:10.346Z,12.10
2023-04-16T12:03:15.887Z,12.22
2023-04-16T12:04:21.027Z,11.97
2023-04-16T12:05:32.237Z,11.88
2023-04-16T12:06:35.283Z,11.93
2023-04-16T12:07:46.766Z,11.89
2023-04-16T12:08:50.743Z,11.87
2023-04-16T12:10:06.501Z,12.09
2023-04-16T12:11:10.290Z,12.02
2023-04-16T12:12:34.942Z,11.94
2023-04-16T12:13:40.406Z,11.94
2023-04-16T12:14:52.074Z,12.15
2023-04-16T12:15:57.369Z,12.04
2023-04-16T12:17:18.219Z,12.28
2023-04-16T12:18:24.541Z,12.10
2023-04-16T12:19:29.290Z,12.13
2023-04-16T12:20:41.793Z,12.16
2023-04-16T12:21:46.987Z,12.26
2023-04-16T12:22:49.993Z,12.06
2023-04-16T12:23:55.163Z,12.21
2023-04-16T12:25:01.221Z,12.16
2023-04-16T12:26:10.817Z,12.07
2023-04-16T12:27:13.633Z,12.19
2023-04-16T12:28:27.860Z,12.19
2023-04-16T12:29:32.142Z,12.23
2023-04-16T12:30:36.209Z,12.25
2023-04-16T12:31:38.795Z,12.24
2023-04-16T12:32:43.824Z,11.89
2023-04-16T12:34:02.467Z,11.98
2023-04-16T12:35:06.566Z,12.17
2023-04-16T12:36:20.830Z,12.28
2023-04-16T12:37:23.513Z,12.02
2023-04-16T12:38:27.355Z,11.91
2023-04-16T12:39:30.414Z,11.94
2023-04-16T12:40:34.897Z,11.79
2023-04-16T12:41:39.047Z,11.82
2023-04-16T12:42:42.661Z,12.12
2023-04-16T12:43:45.531Z,11.97
2023-04-16T12:44:49.293Z,12.26
2023-04-16T12:45:51.960Z,12.26
2023-04-16T12:46:58.888Z,12.26
2023-04-16T12:48:01.777Z,12.33
2023-04-16T12:49:07.264Z,12.30
2023-04-16T12:50:11.168Z,12.39
2023-04-16T12:51:14.930Z,12.49
2023-04-16T12:52:19.023Z,12.52
2023-04-16T12:53:21.609Z,12.56
2023-04-16T12:54:29.147Z,12.48
2023-04-16T12:55:32.878Z,12.41
2023-04-16T12:56:36.647Z,12.57
2023-04-16T12:57:40.211Z,12.15
2023-04-16T12:58:42.756Z,12.16
2023-04-16T12:59:47.384Z,12.34
2023-04-16T13:00:49.988Z,12.32
2023-04-16T13:01:53.870Z,12.59
2023-04-16T13:04:29.361Z,12.33
2023-04-16T13:05:33.153Z,12.31
2023-04-16T13:06:38.007Z,12.32
2023-04-16T13:07:41.708Z,12.16
2023-04-16T13:08:46.368Z,12.05
2023-04-16T13:09:50.269Z,11.73
2023-04-16T13:10:52.933Z,11.61
2023-04-16T13:11:56.590Z,11.56
2023-04-16T13:12:59.184Z,11.34
2023-04-16T13:14:02.919Z,11.33
2023-04-16T13:15:06.214Z,11.25
2023-04-16T13:16:09.923Z,11.07
2023-04-16T13:17:13.812Z,10.88
2023-04-16T13:18:16.469Z,10.70
2023-04-16T13:19:21.192Z,10.62
2023-04-16T13:20:25.805Z,10.38
2023-04-16T13:21:29.953Z,10.44
2023-04-16T13:22:32.564Z,10.41
2023-04-16T13:23:37.045Z,10.38
2023-04-16T13:24:39.790Z,10.37
2023-04-16T13:25:44.377Z,10.36
2023-04-16T13:26:48.031Z,10.25
2023-04-16T13:27:50.706Z,10.14
2023-04-16T13:28:54.789Z,10.06
2023-04-16T13:29:57.475Z,10.01
2023-04-16T13:31:05.701Z,9.97
2023-04-16T13:32:10.219Z,9.88
2023-04-16T13:33:13.429Z,9.79
2023-04-16T13:34:18.010Z,9.79
2023-04-16T13:35:20.662Z,9.80
2023-04-16T13:36:27.617Z,9.83
2023-04-16T13:37:30.344Z,9.85
2023-04-16T13:38:34.217Z,9.87
2023-04-16T13:39:37.863Z,9.78
2023-04-16T13:40:40.572Z,9.72
2023-04-16T13:41:44.645Z,9.73
2023-04-16T13:42:47.559Z,9.60
2023-04-16T13:43:51.267Z,9.57
2023-04-16T13:44:55.275Z,9.57
2023-04-16T13:45:58.858Z,9.51
2023-04-16T13:47:01.574Z,9.56
2023-04-16T13:48:05.719Z,9.54
2023-04-16T13:49:09.718Z,9.47
2023-04-16T13:50:12.636Z,9.47
2023-04-16T13:51:16.788Z,9.47
2023-04-16T13:52:24.505Z,9.43
2023-04-16T13:53:28.220Z,9.41
2023-04-16T13:54:31.561Z,9.39
2023-04-16T13:55:34.235Z,9.36
2023-04-16T13:56:38.152Z,9.31
2023-04-16T13:57:41.520Z,9.31
2023-04-16T13:58:45.284Z,9.31
2023-04-16T13:59:47.466Z,9.34
2023-04-16T14:00:51.285Z,9.32
2023-04-16T14:01:54.167Z,9.31
2023-04-16T14:02:58.507Z,9.26
2023-04-16T14:04:06.423Z,9.31
2023-04-16T14:05:11.002Z,9.31
2023-04-16T14:06:15.315Z,9.26
2023-04-16T14:07:18.262Z,9.27